sensor_id;sensor_type;location;lat;lon;timestamp;P1;durP1;ratioP1;P2;durP2;ratioP2
81996;SDS011;71500;50.806;8.774;2023-10-09T00:01:52;3.10;;;1.80;;
81996;SDS011;71500;50.806;8.774;2023-10-09T00:04:24;3.40;;;1.60;;
81996;SDS011;71500;50.806;8.774;2023-10-09T00:06:56;4.00;;;1.70;;
81996;SDS011;71500;50.806;8.774;2023-10-09T00:09:28;4.30;;;2.60;;
81996;SDS011;71500;50.806;8.774;2023-10-09T00:14:39;3.40;;;1.90;;
81996;SDS011;71500;50.806;8.774;2023-10-09T00:17:10;3.40;;;2.00;;
81996;SDS011;71500;50.806;8.774;2023-10-09T00:19:50;2.60;;;1.90;;
81996;SDS011;71500;50.806;8.774;2023-10-09T00:22:28;2.70;;;1.90;;
81996;SDS011;71500;50.806;8.774;2023-10-09T00:25:08;3.30;;;2.40;;
81996;SDS011;71500;50.806;8.774;2023-10-09T00:27:41;3.30;;;2.20;;
81996;SDS011;71500;50.806;8.774;2023-10-09T00:30:15;3.70;;;1.90;;
81996;SDS011;71500;50.806;8.774;2023-10-09T00:32:48;3.20;;;2.20;;
81996;SDS011;71500;50.806;8.774;2023-10-09T00:35:29;2.80;;;1.80;;
81996;SDS011;71500;50.806;8.774;2023-10-09T00:38:08;4.50;;;1.80;;
81996;SDS011;71500;50.806;8.774;2023-10-09T00:40:52;3.80;;;1.90;;
81996;SDS011;71500;50.806;8.774;2023-10-09T00:43:38;3.30;;;2.00;;
81996;SDS011;71500;50.806;8.774;2023-10-09T00:46:11;3.40;;;1.80;;
81996;SDS011;71500;50.806;8.774;2023-10-09T00:48:54;3.10;;;1.70;;
81996;SDS011;71500;50.806;8.774;2023-10-09T00:51:32;3.00;;;1.90;;
81996;SDS011;71500;50.806;8.774;2023-10-09T00:54:05;4.00;;;2.00;;
81996;SDS011;71500;50.806;8.774;2023-10-09T00:56:44;3.30;;;2.20;;
81996;SDS011;71500;50.806;8.774;2023-10-09T00:59:26;3.00;;;1.90;;
81996;SDS011;71500;50.806;8.774;2023-10-09T01:01:59;3.00;;;1.90;;
81996;SDS011;71500;50.806;8.774;2023-10-09T01:04:34;2.80;;;1.90;;
81996;SDS011;71500;50.806;8.774;2023-10-09T01:07:13;4.70;;;2.80;;
81996;SDS011;71500;50.806;8.774;2023-10-09T01:09:49;2.90;;;1.70;;
81996;SDS011;71500;50.806;8.774;2023-10-09T01:12:23;2.80;;;1.70;;
81996;SDS011;71500;50.806;8.774;2023-10-09T01:14:57;3.10;;;1.70;;
81996;SDS011;71500;50.806;8.774;2023-10-09T01:17:29;3.30;;;2.00;;
81996;SDS011;71500;50.806;8.774;2023-10-09T01:20:06;2.60;;;1.70;;
81996;SDS011;71500;50.806;8.774;2023-10-09T01:26:16;2.50;;;1.80;;
81996;SDS011;71500;50.806;8.774;2023-10-09T01:28:49;3.00;;;1.80;;
81996;SDS011;71500;50.806;8.774;2023-10-09T01:31:26;3.20;;;1.90;;
81996;SDS011;71500;50.806;8.774;2023-10-09T01:34:06;2.70;;;1.70;;
81996;SDS011;71500;50.806;8.774;2023-10-09T01:36:39;3.60;;;1.80;;
81996;SDS011;71500;50.806;8.774;2023-10-09T01:39:11;4.90;;;1.90;;
81996;SDS011;71500;50.806;8.774;2023-10-09T01:41:53;4.20;;;2.20;;
81996;SDS011;71500;50.806;8.774;2023-10-09T01:44:28;4.70;;;2.30;;
81996;SDS011;71500;50.806;8.774;2023-10-09T01:47:04;4.40;;;3.00;;
81996;SDS011;71500;50.806;8.774;2023-10-09T01:49:37;4.40;;;3.10;;
81996;SDS011;71500;50.806;8.774;2023-10-09T01:52:10;5.60;;;3.20;;
81996;SDS011;71500;50.806;8.774;2023-10-09T01:54:45;4.70;;;3.30;;
81996;SDS011;71500;50.806;8.774;2023-10-09T01:57:20;5.00;;;3.40;;
81996;SDS011;71500;50.806;8.774;2023-10-09T01:59:53;4.90;;;3.40;;
81996;SDS011;71500;50.806;8.774;2023-10-09T02:02:26;3.70;;;2.80;;
81996;SDS011;71500;50.806;8.774;2023-10-09T02:05:03;5.60;;;3.80;;
81996;SDS011;71500;50.806;8.774;2023-10-09T02:07:38;4.40;;;3.10;;
81996;SDS011;71500;50.806;8.774;2023-10-09T02:10:13;4.50;;;2.80;;
81996;SDS011;71500;50.806;8.774;2023-10-09T02:13:01;4.00;;;2.90;;
81996;SDS011;71500;50.806;8.774;2023-10-09T02:15:36;6.00;;;3.30;;
81996;SDS011;71500;50.806;8.774;2023-10-09T02:18:22;5.30;;;3.60;;
81996;SDS011;71500;50.806;8.774;2023-10-09T02:21:09;6.20;;;4.00;;
81996;SDS011;71500;50.806;8.774;2023-10-09T02:23:43;6.00;;;3.70;;
81996;SDS011;71500;50.806;8.774;2023-10-09T02:26:19;5.50;;;3.60;;
81996;SDS011;71500;50.806;8.774;2023-10-09T02:28:55;4.90;;;3.80;;
81996;SDS011;71500;50.806;8.774;2023-10-09T02:31:29;6.00;;;3.50;;
81996;SDS011;71500;50.806;8.774;2023-10-09T02:34:09;4.40;;;3.10;;
81996;SDS011;71500;50.806;8.774;2023-10-09T02:36:45;4.80;;;2.80;;
81996;SDS011;71500;50.806;8.774;2023-10-09T02:39:19;4.50;;;3.30;;
81996;SDS011;71500;50.806;8.774;2023-10-09T02:41:53;5.40;;;3.30;;
81996;SDS011;71500;50.806;8.774;2023-10-09T02:44:30;4.60;;;3.20;;
81996;SDS011;71500;50.806;8.774;2023-10-09T02:47:08;5.10;;;3.40;;
81996;SDS011;71500;50.806;8.774;2023-10-09T02:49:40;5.90;;;3.60;;
81996;SDS011;71500;50.806;8.774;2023-10-09T02:52:12;5.60;;;3.70;;
81996;SDS011;71500;50.806;8.774;2023-10-09T02:54:47;5.10;;;3.70;;
81996;SDS011;71500;50.806;8.774;2023-10-09T02:57:28;5.30;;;3.20;;
81996;SDS011;71500;50.806;8.774;2023-10-09T03:00:06;6.20;;;3.70;;
81996;SDS011;71500;50.806;8.774;2023-10-09T03:02:47;5.70;;;3.00;;
81996;SDS011;71500;50.806;8.774;2023-10-09T03:05:20;5.10;;;3.10;;
81996;SDS011;71500;50.806;8.774;2023-10-09T03:07:52;3.90;;;3.00;;
81996;SDS011;71500;50.806;8.774;2023-10-09T03:10:25;4.70;;;3.20;;
81996;SDS011;71500;50.806;8.774;2023-10-09T03:12:56;5.10;;;3.00;;
81996;SDS011;71500;50.806;8.774;2023-10-09T03:15:30;7.50;;;4.10;;
81996;SDS011;71500;50.806;8.774;2023-10-09T03:18:04;5.10;;;3.80;;
81996;SDS011;71500;50.806;8.774;2023-10-09T03:20:36;5.70;;;3.50;;
81996;SDS011;71500;50.806;8.774;2023-10-09T03:23:09;5.60;;;3.60;;
81996;SDS011;71500;50.806;8.774;2023-10-09T03:25:42;6.20;;;3.70;;
81996;SDS011;71500;50.806;8.774;2023-10-09T03:28:14;5.30;;;3.30;;
81996;SDS011;71500;50.806;8.774;2023-10-09T03:30:46;5.30;;;4.10;;
81996;SDS011;71500;50.806;8.774;2023-10-09T03:33:18;5.50;;;3.50;;
81996;SDS011;71500;50.806;8.774;2023-10-09T03:35:49;3.20;;;2.50;;
81996;SDS011;71500;50.806;8.774;2023-10-09T03:38:21;4.20;;;3.10;;
81996;SDS011;71500;50.806;8.774;2023-10-09T03:40:52;4.80;;;2.80;;
81996;SDS011;71500;50.806;8.774;2023-10-09T03:43:24;4.40;;;3.10;;
81996;SDS011;71500;50.806;8.774;2023-10-09T03:46:01;5.40;;;3.40;;
81996;SDS011;71500;50.806;8.774;2023-10-09T03:48:34;6.90;;;4.00;;
81996;SDS011;71500;50.806;8.774;2023-10-09T03:51:05;5.10;;;3.50;;
81996;SDS011;71500;50.806;8.774;2023-10-09T03:53:40;6.00;;;3.30;;
81996;SDS011;71500;50.806;8.774;2023-10-09T03:56:12;6.00;;;3.40;;
81996;SDS011;71500;50.806;8.774;2023-10-09T03:58:46;4.50;;;3.30;;
81996;SDS011;71500;50.806;8.774;2023-10-09T04:01:19;3.70;;;2.90;;
81996;SDS011;71500;50.806;8.774;2023-10-09T04:03:56;4.60;;;3.00;;
81996;SDS011;71500;50.806;8.774;2023-10-09T04:06:30;4.30;;;2.80;;
81996;SDS011;71500;50.806;8.774;2023-10-09T04:09:03;4.90;;;3.30;;
81996;SDS011;71500;50.806;8.774;2023-10-09T04:11:56;6.20;;;3.90;;
81996;SDS011;71500;50.806;8.774;2023-10-09T04:14:42;5.20;;;3.40;;
81996;SDS011;71500;50.806;8.774;2023-10-09T04:17:19;4.30;;;3.30;;
81996;SDS011;71500;50.806;8.774;2023-10-09T04:20:04;4.30;;;3.20;;
81996;SDS011;71500;50.806;8.774;2023-10-09T04:22:51;5.40;;;3.20;;
81996;SDS011;71500;50.806;8.774;2023-10-09T04:25:29;7.50;;;3.70;;
81996;SDS011;71500;50.806;8.774;2023-10-09T04:28:11;5.50;;;3.60;;
81996;SDS011;71500;50.806;8.774;2023-10-09T04:30:49;5.10;;;4.00;;
81996;SDS011;71500;50.806;8.774;2023-10-09T04:33:24;4.70;;;2.80;;
81996;SDS011;71500;50.806;8.774;2023-10-09T04:36:09;4.00;;;2.60;;
81996;SDS011;71500;50.806;8.774;2023-10-09T04:38:53;5.00;;;3.20;;
81996;SDS011;71500;50.806;8.774;2023-10-09T04:41:41;6.00;;;3.00;;
81996;SDS011;71500;50.806;8.774;2023-10-09T04:44:28;4.40;;;3.00;;
81996;SDS011;71500;50.806;8.774;2023-10-09T04:47:07;4.70;;;3.40;;
81996;SDS011;71500;50.806;8.774;2023-10-09T04:49:48;6.30;;;2.90;;
81996;SDS011;71500;50.806;8.774;2023-10-09T04:52:31;5.80;;;3.00;;
81996;SDS011;71500;50.806;8.774;2023-10-09T04:55:16;4.70;;;3.30;;
81996;SDS011;71500;50.806;8.774;2023-10-09T04:57:53;4.40;;;3.00;;
81996;SDS011;71500;50.806;8.774;2023-10-09T05:00:32;4.80;;;3.30;;
81996;SDS011;71500;50.806;8.774;2023-10-09T05:03:17;4.40;;;3.00;;
81996;SDS011;71500;50.806;8.774;2023-10-09T05:05:58;5.20;;;2.80;;
81996;SDS011;71500;50.806;8.774;2023-10-09T05:08:49;4.80;;;3.00;;
81996;SDS011;71500;50.806;8.774;2023-10-09T05:11:23;4.50;;;2.90;;
81996;SDS011;71500;50.806;8.774;2023-10-09T05:14:22;4.90;;;2.80;;
81996;SDS011;71500;50.806;8.774;2023-10-09T05:17:07;6.40;;;3.50;;
81996;SDS011;71500;50.806;8.774;2023-10-09T05:19:45;4.80;;;3.30;;
81996;SDS011;71500;50.806;8.774;2023-10-09T05:22:33;5.20;;;3.10;;
81996;SDS011;71500;50.806;8.774;2023-10-09T05:25:08;5.20;;;3.20;;
81996;SDS011;71500;50.806;8.774;2023-10-09T05:28:05;5.30;;;3.10;;
81996;SDS011;71500;50.806;8.774;2023-10-09T05:30:50;4.80;;;2.90;;
81996;SDS011;71500;50.806;8.774;2023-10-09T05:33:35;5.10;;;3.10;;
81996;SDS011;71500;50.806;8.774;2023-10-09T05:36:07;5.90;;;3.20;;
81996;SDS011;71500;50.806;8.774;2023-10-09T05:39:00;5.80;;;3.00;;
81996;SDS011;71500;50.806;8.774;2023-10-09T05:41:46;5.20;;;3.20;;
81996;SDS011;71500;50.806;8.774;2023-10-09T05:44:29;4.90;;;3.20;;
81996;SDS011;71500;50.806;8.774;2023-10-09T05:47:17;5.50;;;3.10;;
81996;SDS011;71500;50.806;8.774;2023-10-09T05:50:01;5.10;;;3.30;;
81996;SDS011;71500;50.806;8.774;2023-10-09T05:52:50;5.60;;;3.50;;
81996;SDS011;71500;50.806;8.774;2023-10-09T05:55:38;5.30;;;3.00;;
81996;SDS011;71500;50.806;8.774;2023-10-09T05:58:32;5.30;;;3.30;;
81996;SDS011;71500;50.806;8.774;2023-10-09T06:01:18;5.00;;;3.20;;
81996;SDS011;71500;50.806;8.774;2023-10-09T06:04:04;5.00;;;3.40;;
81996;SDS011;71500;50.806;8.774;2023-10-09T06:06:44;4.80;;;3.60;;
81996;SDS011;71500;50.806;8.774;2023-10-09T06:09:25;5.80;;;3.20;;
81996;SDS011;71500;50.806;8.774;2023-10-09T06:12:19;4.40;;;3.50;;
81996;SDS011;71500;50.806;8.774;2023-10-09T06:15:23;5.80;;;3.20;;
81996;SDS011;71500;50.806;8.774;2023-10-09T06:18:22;6.10;;;3.50;;
81996;SDS011;71500;50.806;8.774;2023-10-09T06:21:02;5.20;;;3.30;;
81996;SDS011;71500;50.806;8.774;2023-10-09T06:23:39;6.00;;;3.70;;
81996;SDS011;71500;50.806;8.774;2023-10-09T06:26:25;6.10;;;3.40;;
81996;SDS011;71500;50.806;8.774;2023-10-09T06:29:01;7.40;;;3.60;;
81996;SDS011;71500;50.806;8.774;2023-10-09T06:31:50;5.00;;;3.90;;
81996;SDS011;71500;50.806;8.774;2023-10-09T06:34:28;4.40;;;3.00;;
81996;SDS011;71500;50.806;8.774;2023-10-09T06:37:04;5.60;;;3.10;;
81996;SDS011;71500;50.806;8.774;2023-10-09T06:39:46;6.20;;;3.20;;
81996;SDS011;71500;50.806;8.774;2023-10-09T06:42:40;5.10;;;2.70;;
81996;SDS011;71500;50.806;8.774;2023-10-09T06:45:20;5.70;;;3.30;;
81996;SDS011;71500;50.806;8.774;2023-10-09T06:48:12;5.90;;;3.30;;
81996;SDS011;71500;50.806;8.774;2023-10-09T06:51:07;6.40;;;3.20;;
81996;SDS011;71500;50.806;8.774;2023-10-09T06:53:44;5.40;;;3.40;;
81996;SDS011;71500;50.806;8.774;2023-10-09T06:56:33;5.80;;;3.40;;
81996;SDS011;71500;50.806;8.774;2023-10-09T06:59:19;5.00;;;3.60;;
81996;SDS011;71500;50.806;8.774;2023-10-09T07:01:53;7.60;;;3.10;;
81996;SDS011;71500;50.806;8.774;2023-10-09T07:04:39;4.70;;;3.10;;
81996;SDS011;71500;50.806;8.774;2023-10-09T07:07:16;6.00;;;3.30;;
81996;SDS011;71500;50.806;8.774;2023-10-09T07:09:49;5.40;;;3.20;;
81996;SDS011;71500;50.806;8.774;2023-10-09T07:12:36;4.40;;;2.80;;
81996;SDS011;71500;50.806;8.774;2023-10-09T07:15:21;7.00;;;3.80;;
81996;SDS011;71500;50.806;8.774;2023-10-09T07:18:07;5.60;;;3.50;;
81996;SDS011;71500;50.806;8.774;2023-10-09T07:20:54;6.60;;;4.30;;
81996;SDS011;71500;50.806;8.774;2023-10-09T07:23:40;5.70;;;3.10;;
81996;SDS011;71500;50.806;8.774;2023-10-09T07:26:17;6.00;;;3.70;;
81996;SDS011;71500;50.806;8.774;2023-10-09T07:28:52;5.30;;;3.00;;
81996;SDS011;71500;50.806;8.774;2023-10-09T07:31:44;5.50;;;3.50;;
81996;SDS011;71500;50.806;8.774;2023-10-09T07:37:01;6.30;;;2.90;;
81996;SDS011;71500;50.806;8.774;2023-10-09T07:39:33;8.00;;;3.40;;
81996;SDS011;71500;50.806;8.774;2023-10-09T07:42:07;5.20;;;3.60;;
81996;SDS011;71500;50.806;8.774;2023-10-09T07:44:57;6.10;;;3.70;;
81996;SDS011;71500;50.806;8.774;2023-10-09T07:47:42;6.10;;;3.00;;
81996;SDS011;71500;50.806;8.774;2023-10-09T07:50:34;8.40;;;4.60;;
81996;SDS011;71500;50.806;8.774;2023-10-09T07:53:17;6.50;;;3.50;;
81996;SDS011;71500;50.806;8.774;2023-10-09T07:55:55;5.70;;;3.70;;
81996;SDS011;71500;50.806;8.774;2023-10-09T07:58:27;5.20;;;3.40;;
81996;SDS011;71500;50.806;8.774;2023-10-09T08:01:02;6.10;;;4.20;;
81996;SDS011;71500;50.806;8.774;2023-10-09T08:03:46;7.20;;;3.90;;
81996;SDS011;71500;50.806;8.774;2023-10-09T08:06:27;5.90;;;3.40;;
81996;SDS011;71500;50.806;8.774;2023-10-09T08:09:08;5.70;;;3.50;;
81996;SDS011;71500;50.806;8.774;2023-10-09T08:11:55;6.40;;;3.30;;
81996;SDS011;71500;50.806;8.774;2023-10-09T08:14:41;8.00;;;4.20;;
81996;SDS011;71500;50.806;8.774;2023-10-09T08:17:14;12.80;;;8.00;;
81996;SDS011;71500;50.806;8.774;2023-10-09T08:19:50;9.20;;;6.30;;
81996;SDS011;71500;50.806;8.774;2023-10-09T08:22:24;10.20;;;5.30;;
81996;SDS011;71500;50.806;8.774;2023-10-09T08:25:12;6.10;;;4.20;;
81996;SDS011;71500;50.806;8.774;2023-10-09T08:27:57;9.10;;;5.20;;
81996;SDS011;71500;50.806;8.774;2023-10-09T08:30:43;5.80;;;4.10;;
81996;SDS011;71500;50.806;8.774;2023-10-09T08:33:32;6.10;;;3.50;;
81996;SDS011;71500;50.806;8.774;2023-10-09T08:36:14;6.90;;;3.60;;
81996;SDS011;71500;50.806;8.774;2023-10-09T08:38:52;6.80;;;4.20;;
81996;SDS011;71500;50.806;8.774;2023-10-09T08:41:27;7.40;;;4.30;;
81996;SDS011;71500;50.806;8.774;2023-10-09T08:46:32;7.10;;;3.70;;
81996;SDS011;71500;50.806;8.774;2023-10-09T08:49:06;5.80;;;3.90;;
81996;SDS011;71500;50.806;8.774;2023-10-09T08:51:39;6.60;;;4.00;;
81996;SDS011;71500;50.806;8.774;2023-10-09T08:54:11;6.20;;;3.80;;
81996;SDS011;71500;50.806;8.774;2023-10-09T08:56:44;6.50;;;4.20;;
81996;SDS011;71500;50.806;8.774;2023-10-09T08:59:20;6.60;;;3.80;;
81996;SDS011;71500;50.806;8.774;2023-10-09T09:01:51;5.30;;;3.60;;
81996;SDS011;71500;50.806;8.774;2023-10-09T09:04:37;5.00;;;2.90;;
81996;SDS011;71500;50.806;8.774;2023-10-09T09:07:23;7.40;;;4.10;;
81996;SDS011;71500;50.806;8.774;2023-10-09T09:09:58;7.30;;;3.50;;
81996;SDS011;71500;50.806;8.774;2023-10-09T09:12:32;6.20;;;3.60;;
81996;SDS011;71500;50.806;8.774;2023-10-09T09:15:12;5.70;;;3.50;;
81996;SDS011;71500;50.806;8.774;2023-10-09T09:17:49;7.20;;;4.00;;
81996;SDS011;71500;50.806;8.774;2023-10-09T09:20:24;6.60;;;3.80;;
81996;SDS011;71500;50.806;8.774;2023-10-09T09:23:00;8.90;;;4.70;;
81996;SDS011;71500;50.806;8.774;2023-10-09T09:25:40;6.10;;;3.90;;
81996;SDS011;71500;50.806;8.774;2023-10-09T09:28:14;5.90;;;3.80;;
81996;SDS011;71500;50.806;8.774;2023-10-09T09:30:52;6.80;;;3.70;;
81996;SDS011;71500;50.806;8.774;2023-10-09T09:33:42;6.30;;;3.60;;
81996;SDS011;71500;50.806;8.774;2023-10-09T09:36:13;6.10;;;3.70;;
81996;SDS011;71500;50.806;8.774;2023-10-09T09:38:45;6.80;;;3.90;;
81996;SDS011;71500;50.806;8.774;2023-10-09T09:41:17;6.00;;;3.60;;
81996;SDS011;71500;50.806;8.774;2023-10-09T09:43:54;7.30;;;3.80;;
81996;SDS011;71500;50.806;8.774;2023-10-09T09:46:31;5.60;;;3.70;;
81996;SDS011;71500;50.806;8.774;2023-10-09T09:49:04;5.50;;;3.70;;
81996;SDS011;71500;50.806;8.774;2023-10-09T09:51:45;7.20;;;4.20;;
81996;SDS011;71500;50.806;8.774;2023-10-09T09:54:17;8.40;;;4.00;;
81996;SDS011;71500;50.806;8.774;2023-10-09T09:56:54;5.90;;;3.60;;
81996;SDS011;71500;50.806;8.774;2023-10-09T09:59:29;6.70;;;3.60;;
81996;SDS011;71500;50.806;8.774;2023-10-09T10:02:04;7.90;;;4.20;;
81996;SDS011;71500;50.806;8.774;2023-10-09T10:04:38;6.50;;;3.70;;
81996;SDS011;71500;50.806;8.774;2023-10-09T10:07:14;8.80;;;3.90;;
81996;SDS011;71500;50.806;8.774;2023-10-09T10:09:50;8.60;;;4.30;;
81996;SDS011;71500;50.806;8.774;2023-10-09T10:18:53;6.70;;;4.10;;
81996;SDS011;71500;50.806;8.774;2023-10-09T10:21:51;7.70;;;4.10;;
81996;SDS011;71500;50.806;8.774;2023-10-09T10:27:24;6.40;;;3.10;;
81996;SDS011;71500;50.806;8.774;2023-10-09T10:33:01;7.90;;;4.50;;
81996;SDS011;71500;50.806;8.774;2023-10-09T10:35:43;9.80;;;5.40;;
81996;SDS011;71500;50.806;8.774;2023-10-09T10:41:14;7.80;;;4.00;;
81996;SDS011;71500;50.806;8.774;2023-10-09T10:43:46;7.10;;;4.30;;
81996;SDS011;71500;50.806;8.774;2023-10-09T10:46:28;7.60;;;4.70;;
81996;SDS011;71500;50.806;8.774;2023-10-09T10:49:08;6.00;;;4.00;;
81996;SDS011;71500;50.806;8.774;2023-10-09T10:51:49;9.10;;;3.60;;
81996;SDS011;71500;50.806;8.774;2023-10-09T10:54:30;7.00;;;4.40;;
81996;SDS011;71500;50.806;8.774;2023-10-09T10:57:36;9.60;;;5.70;;
81996;SDS011;71500;50.806;8.774;2023-10-09T11:00:22;6.80;;;4.40;;
81996;SDS011;71500;50.806;8.774;2023-10-09T11:03:08;7.20;;;4.00;;
81996;SDS011;71500;50.806;8.774;2023-10-09T11:05:48;6.50;;;3.90;;
81996;SDS011;71500;50.806;8.774;2023-10-09T11:08:23;6.40;;;3.70;;
81996;SDS011;71500;50.806;8.774;2023-10-09T11:11:13;9.10;;;4.30;;
81996;SDS011;71500;50.806;8.774;2023-10-09T11:13:47;7.70;;;4.10;;
81996;SDS011;71500;50.806;8.774;2023-10-09T11:16:26;6.70;;;3.50;;
81996;SDS011;71500;50.806;8.774;2023-10-09T11:19:13;5.50;;;3.30;;
81996;SDS011;71500;50.806;8.774;2023-10-09T11:22:01;5.00;;;3.20;;
81996;SDS011;71500;50.806;8.774;2023-10-09T11:24:51;7.00;;;4.00;;
81996;SDS011;71500;50.806;8.774;2023-10-09T11:27:46;6.90;;;4.00;;
81996;SDS011;71500;50.806;8.774;2023-10-09T11:30:20;10.30;;;3.90;;
81996;SDS011;71500;50.806;8.774;2023-10-09T11:33:06;8.50;;;4.10;;
81996;SDS011;71500;50.806;8.774;2023-10-09T11:35:54;7.90;;;4.80;;
81996;SDS011;71500;50.806;8.774;2023-10-09T11:38:27;5.90;;;4.00;;
81996;SDS011;71500;50.806;8.774;2023-10-09T11:41:16;7.90;;;4.20;;
81996;SDS011;71500;50.806;8.774;2023-10-09T11:43:52;6.60;;;4.10;;
81996;SDS011;71500;50.806;8.774;2023-10-09T11:46:26;10.10;;;4.30;;
81996;SDS011;71500;50.806;8.774;2023-10-09T11:49:09;6.30;;;3.50;;
81996;SDS011;71500;50.806;8.774;2023-10-09T11:52:05;7.70;;;3.80;;
81996;SDS011;71500;50.806;8.774;2023-10-09T11:54:52;12.60;;;5.90;;
81996;SDS011;71500;50.806;8.774;2023-10-09T11:57:25;9.00;;;4.90;;
81996;SDS011;71500;50.806;8.774;2023-10-09T12:00:01;10.30;;;4.40;;
81996;SDS011;71500;50.806;8.774;2023-10-09T12:02:56;8.80;;;4.10;;
81996;SDS011;71500;50.806;8.774;2023-10-09T12:05:35;7.30;;;4.30;;
81996;SDS011;71500;50.806;8.774;2023-10-09T12:08:06;7.20;;;4.20;;
81996;SDS011;71500;50.806;8.774;2023-10-09T12:10:38;10.30;;;4.90;;
81996;SDS011;71500;50.806;8.774;2023-10-09T12:13:10;7.50;;;3.80;;
81996;SDS011;71500;50.806;8.774;2023-10-09T12:15:44;6.30;;;3.40;;
81996;SDS011;71500;50.806;8.774;2023-10-09T12:18:16;9.20;;;4.40;;
81996;SDS011;71500;50.806;8.774;2023-10-09T12:20:48;6.30;;;4.10;;
81996;SDS011;71500;50.806;8.774;2023-10-09T12:23:21;6.20;;;3.70;;
81996;SDS011;71500;50.806;8.774;2023-10-09T12:25:56;9.50;;;4.30;;
81996;SDS011;71500;50.806;8.774;2023-10-09T12:28:29;7.20;;;3.60;;
81996;SDS011;71500;50.806;8.774;2023-10-09T12:31:02;6.50;;;3.90;;
81996;SDS011;71500;50.806;8.774;2023-10-09T12:33:33;8.90;;;4.50;;
81996;SDS011;71500;50.806;8.774;2023-10-09T12:36:12;7.70;;;4.30;;
81996;SDS011;71500;50.806;8.774;2023-10-09T12:38:48;7.70;;;4.20;;
81996;SDS011;71500;50.806;8.774;2023-10-09T12:41:22;9.30;;;4.40;;
81996;SDS011;71500;50.806;8.774;2023-10-09T12:43:56;8.50;;;4.10;;
81996;SDS011;71500;50.806;8.774;2023-10-09T12:46:28;6.20;;;4.10;;
81996;SDS011;71500;50.806;8.774;2023-10-09T12:49:07;8.20;;;4.20;;
81996;SDS011;71500;50.806;8.774;2023-10-09T12:51:39;5.60;;;3.80;;
81996;SDS011;71500;50.806;8.774;2023-10-09T12:54:10;6.20;;;4.00;;
81996;SDS011;71500;50.806;8.774;2023-10-09T12:56:43;6.90;;;3.70;;
81996;SDS011;71500;50.806;8.774;2023-10-09T12:59:17;6.50;;;3.60;;
81996;SDS011;71500;50.806;8.774;2023-10-09T13:01:50;8.70;;;3.70;;
81996;SDS011;71500;50.806;8.774;2023-10-09T13:04:27;7.30;;;4.00;;
81996;SDS011;71500;50.806;8.774;2023-10-09T13:07:01;5.70;;;4.10;;
81996;SDS011;71500;50.806;8.774;2023-10-09T13:09:35;7.90;;;4.50;;
81996;SDS011;71500;50.806;8.774;2023-10-09T13:12:12;7.70;;;4.40;;
81996;SDS011;71500;50.806;8.774;2023-10-09T13:14:48;8.00;;;4.30;;
81996;SDS011;71500;50.806;8.774;2023-10-09T13:17:19;6.70;;;4.10;;
81996;SDS011;71500;50.806;8.774;2023-10-09T13:19:56;9.00;;;4.20;;
81996;SDS011;71500;50.806;8.774;2023-10-09T13:22:27;11.20;;;4.00;;
81996;SDS011;71500;50.806;8.774;2023-10-09T13:24:59;7.90;;;4.30;;
81996;SDS011;71500;50.806;8.774;2023-10-09T13:27:33;6.50;;;4.30;;
81996;SDS011;71500;50.806;8.774;2023-10-09T13:30:08;7.20;;;3.70;;
81996;SDS011;71500;50.806;8.774;2023-10-09T13:32:50;6.70;;;3.40;;
81996;SDS011;71500;50.806;8.774;2023-10-09T13:35:22;6.90;;;3.70;;
81996;SDS011;71500;50.806;8.774;2023-10-09T13:38:06;8.40;;;4.60;;
81996;SDS011;71500;50.806;8.774;2023-10-09T13:40:39;7.40;;;4.60;;
81996;SDS011;71500;50.806;8.774;2023-10-09T13:43:10;9.10;;;4.90;;
81996;SDS011;71500;50.806;8.774;2023-10-09T13:45:45;7.30;;;4.40;;
81996;SDS011;71500;50.806;8.774;2023-10-09T13:48:19;7.10;;;4.20;;
81996;SDS011;71500;50.806;8.774;2023-10-09T13:50:52;8.90;;;5.00;;
81996;SDS011;71500;50.806;8.774;2023-10-09T13:53:31;8.30;;;4.40;;
81996;SDS011;71500;50.806;8.774;2023-10-09T13:56:04;7.80;;;4.30;;
81996;SDS011;71500;50.806;8.774;2023-10-09T13:58:43;6.90;;;4.10;;
81996;SDS011;71500;50.806;8.774;2023-10-09T14:01:16;5.60;;;3.80;;
81996;SDS011;71500;50.806;8.774;2023-10-09T14:03:56;8.20;;;4.10;;
81996;SDS011;71500;50.806;8.774;2023-10-09T14:06:29;7.80;;;4.10;;
81996;SDS011;71500;50.806;8.774;2023-10-09T14:09:01;9.50;;;4.70;;
81996;SDS011;71500;50.806;8.774;2023-10-09T14:11:34;7.90;;;3.70;;
81996;SDS011;71500;50.806;8.774;2023-10-09T14:14:06;8.20;;;4.20;;
81996;SDS011;71500;50.806;8.774;2023-10-09T14:16:40;8.70;;;3.90;;
81996;SDS011;71500;50.806;8.774;2023-10-09T14:19:12;6.40;;;3.80;;
81996;SDS011;71500;50.806;8.774;2023-10-09T14:21:49;8.80;;;3.80;;
81996;SDS011;71500;50.806;8.774;2023-10-09T14:24:21;6.20;;;4.50;;
81996;SDS011;71500;50.806;8.774;2023-10-09T14:27:02;6.80;;;3.70;;
81996;SDS011;71500;50.806;8.774;2023-10-09T14:29:35;7.50;;;3.90;;
81996;SDS011;71500;50.806;8.774;2023-10-09T14:32:07;8.20;;;4.20;;
81996;SDS011;71500;50.806;8.774;2023-10-09T14:34:42;6.20;;;4.40;;
81996;SDS011;71500;50.806;8.774;2023-10-09T14:37:19;7.10;;;3.90;;
81996;SDS011;71500;50.806;8.774;2023-10-09T14:39:52;6.60;;;3.70;;
81996;SDS011;71500;50.806;8.774;2023-10-09T14:42:24;9.70;;;4.30;;
81996;SDS011;71500;50.806;8.774;2023-10-09T14:44:57;6.80;;;4.10;;
81996;SDS011;71500;50.806;8.774;2023-10-09T14:47:36;8.90;;;5.10;;
81996;SDS011;71500;50.806;8.774;2023-10-09T14:50:08;8.60;;;4.70;;
81996;SDS011;71500;50.806;8.774;2023-10-09T14:52:42;8.20;;;3.90;;
81996;SDS011;71500;50.806;8.774;2023-10-09T14:55:14;6.00;;;3.70;;
81996;SDS011;71500;50.806;8.774;2023-10-09T14:57:52;7.10;;;4.20;;
81996;SDS011;71500;50.806;8.774;2023-10-09T15:00:24;6.50;;;3.70;;
81996;SDS011;71500;50.806;8.774;2023-10-09T15:02:55;7.40;;;4.00;;
81996;SDS011;71500;50.806;8.774;2023-10-09T15:05:27;6.30;;;3.20;;
81996;SDS011;71500;50.806;8.774;2023-10-09T15:08:00;7.10;;;4.00;;
81996;SDS011;71500;50.806;8.774;2023-10-09T15:10:33;6.80;;;4.10;;
81996;SDS011;71500;50.806;8.774;2023-10-09T15:13:05;6.70;;;3.30;;
81996;SDS011;71500;50.806;8.774;2023-10-09T15:15:41;8.30;;;4.80;;
81996;SDS011;71500;50.806;8.774;2023-10-09T15:18:12;18.90;;;10.60;;
81996;SDS011;71500;50.806;8.774;2023-10-09T15:20:47;7.30;;;4.50;;
81996;SDS011;71500;50.806;8.774;2023-10-09T15:23:20;5.40;;;3.60;;
81996;SDS011;71500;50.806;8.774;2023-10-09T15:25:52;6.20;;;3.50;;
81996;SDS011;71500;50.806;8.774;2023-10-09T15:28:23;6.80;;;3.80;;
81996;SDS011;71500;50.806;8.774;2023-10-09T15:31:01;6.20;;;3.50;;
81996;SDS011;71500;50.806;8.774;2023-10-09T15:33:32;6.10;;;3.80;;
81996;SDS011;71500;50.806;8.774;2023-10-09T15:36:10;6.80;;;3.90;;
81996;SDS011;71500;50.806;8.774;2023-10-09T15:38:43;7.40;;;4.00;;
81996;SDS011;71500;50.806;8.774;2023-10-09T15:41:14;8.10;;;4.30;;
81996;SDS011;71500;50.806;8.774;2023-10-09T15:43:50;8.30;;;4.10;;
81996;SDS011;71500;50.806;8.774;2023-10-09T15:46:21;6.30;;;3.70;;
81996;SDS011;71500;50.806;8.774;2023-10-09T15:48:54;6.10;;;3.50;;
81996;SDS011;71500;50.806;8.774;2023-10-09T15:51:26;5.70;;;3.70;;
81996;SDS011;71500;50.806;8.774;2023-10-09T15:53:59;7.80;;;3.70;;
81996;SDS011;71500;50.806;8.774;2023-10-09T15:56:30;7.10;;;4.00;;
81996;SDS011;71500;50.806;8.774;2023-10-09T15:59:03;5.40;;;3.70;;
81996;SDS011;71500;50.806;8.774;2023-10-09T16:01:35;8.90;;;5.30;;
81996;SDS011;71500;50.806;8.774;2023-10-09T16:04:09;9.10;;;4.40;;
81996;SDS011;71500;50.806;8.774;2023-10-09T16:06:42;8.00;;;4.90;;
81996;SDS011;71500;50.806;8.774;2023-10-09T16:09:13;6.20;;;3.90;;
81996;SDS011;71500;50.806;8.774;2023-10-09T16:11:50;6.80;;;3.90;;
81996;SDS011;71500;50.806;8.774;2023-10-09T16:14:22;6.90;;;3.80;;
81996;SDS011;71500;50.806;8.774;2023-10-09T16:16:54;6.20;;;3.90;;
81996;SDS011;71500;50.806;8.774;2023-10-09T16:19:26;7.10;;;4.00;;